createdAt,value
2023-03-12T00:02:12.834Z,17.77
2023-03-12T00:04:39.731Z,11.63
2023-03-12T00:07:08.333Z,9.65
2023-03-12T00:09:37.573Z,13.20
2023-03-12T00:12:04.712Z,12.30
2023-03-12T00:14:32.585Z,15.23
2023-03-12T00:16:59.547Z,15.10
2023-03-12T00:19:26.727Z,9.95
2023-03-12T00:21:53.588Z,12.15
2023-03-12T00:24:20.540Z,12.65
2023-03-12T00:26:47.378Z,13.73
2023-03-12T00:29:14.293Z,13.00
2023-03-12T00:31:41.249Z,12.75
2023-03-12T00:34:08.164Z,12.38
2023-03-12T00:36:38.097Z,17.13
2023-03-12T00:39:05.251Z,13.10
2023-03-12T00:41:32.096Z,17.60
2023-03-12T00:43:59.034Z,12.95
2023-03-12T00:46:26.009Z,13.15
2023-03-12T00:48:52.982Z,13.88
2023-03-12T00:51:20.388Z,18.55
2023-03-12T00:53:47.760Z,16.42
2023-03-12T00:56:14.749Z,15.85
2023-03-12T00:58:42.791Z,17.98
2023-03-12T01:01:09.851Z,18.50
2023-03-12T01:03:36.961Z,16.02
2023-03-12T01:06:04.633Z,14.73
2023-03-12T01:08:31.667Z,15.65
2023-03-12T01:10:58.654Z,14.07
2023-03-12T01:13:25.756Z,15.13
2023-03-12T01:15:52.613Z,15.95
2023-03-12T01:18:19.553Z,14.88
2023-03-12T01:20:47.158Z,17.02
2023-03-12T01:23:14.512Z,14.75
2023-03-12T01:25:41.668Z,11.95
2023-03-12T01:28:08.793Z,11.55
2023-03-12T01:30:35.666Z,11.25
2023-03-12T01:33:02.469Z,12.88
2023-03-12T01:35:29.313Z,9.00
2023-03-12T01:37:56.409Z,11.65
2023-03-12T01:40:29.132Z,12.05
2023-03-12T01:42:58.311Z,11.73
2023-03-12T01:45:53.430Z,10.45
2023-03-12T01:48:20.562Z,9.57
2023-03-12T01:50:47.477Z,13.50
2023-03-12T01:53:14.489Z,10.52
2023-03-12T01:55:41.703Z,13.20
2023-03-12T01:58:08.810Z,12.32
2023-03-12T02:00:35.685Z,10.63
2023-03-12T02:03:07.014Z,10.77
2023-03-12T02:05:53.225Z,14.82
2023-03-12T02:08:20.192Z,13.93
2023-03-12T02:10:47.571Z,16.00
2023-03-12T02:13:14.446Z,15.35
2023-03-12T02:15:41.690Z,11.93
2023-03-12T02:18:11.754Z,13.50
2023-03-12T02:21:02.582Z,12.27
2023-03-12T02:23:35.261Z,14.00
2023-03-12T02:26:04.589Z,17.90
2023-03-12T02:28:34.495Z,14.05
2023-03-12T02:31:04.228Z,10.00
2023-03-12T02:33:31.050Z,16.15
2023-03-12T02:35:58.037Z,14.43
2023-03-12T02:38:44.458Z,12.98
2023-03-12T02:41:19.571Z,11.10
2023-03-12T02:43:50.251Z,16.65
2023-03-12T02:46:17.509Z,15.02
2023-03-12T02:48:44.387Z,13.80
2023-03-12T02:51:11.358Z,14.52
2023-03-12T02:53:38.387Z,14.35
2023-03-12T02:56:05.644Z,12.15
2023-03-12T02:58:32.666Z,9.50
2023-03-12T03:01:00.649Z,16.50
2023-03-12T03:03:27.552Z,13.52
2023-03-12T03:05:54.700Z,11.27
2023-03-12T03:08:21.553Z,12.57
2023-03-12T03:10:51.424Z,9.75
2023-03-12T03:13:18.226Z,12.00
2023-03-12T03:15:45.042Z,12.80
2023-03-12T03:18:11.933Z,12.35
2023-03-12T03:20:38.867Z,11.48
2023-03-12T03:23:05.654Z,14.27
2023-03-12T03:25:33.511Z,12.45
2023-03-12T03:28:00.264Z,18.05
2023-03-12T03:30:27.030Z,16.63
2023-03-12T03:32:53.837Z,13.73
2023-03-12T03:35:22.206Z,13.20
2023-03-12T03:37:49.040Z,11.18
2023-03-12T03:40:15.992Z,18.88
2023-03-12T03:42:42.788Z,12.52
2023-03-12T03:45:10.032Z,13.07
2023-03-12T03:47:37.324Z,12.73
2023-03-12T03:50:05.981Z,12.52
2023-03-12T03:52:33.111Z,15.40
2023-03-12T03:54:59.907Z,10.07
2023-03-12T03:57:27.778Z,9.60
2023-03-12T03:59:54.710Z,11.50
2023-03-12T04:02:21.845Z,15.43
2023-03-12T04:04:48.966Z,13.10
2023-03-12T04:07:16.375Z,12.07
2023-03-12T04:09:43.986Z,13.23
2023-03-12T04:12:11.149Z,16.38
2023-03-12T04:14:42.957Z,14.98
2023-03-12T04:17:10.114Z,10.95
2023-03-12T04:19:37.167Z,13.60
2023-03-12T04:22:04.342Z,16.13
2023-03-12T04:24:31.233Z,12.57
2023-03-12T04:26:59.209Z,13.35
2023-03-12T04:29:26.498Z,18.95
2023-03-12T04:31:53.423Z,17.13
2023-03-12T04:34:20.905Z,11.20
2023-03-12T04:36:48.145Z,12.50
2023-03-12T04:39:19.182Z,11.55
2023-03-12T04:41:46.305Z,10.73
2023-03-12T04:44:14.168Z,11.57
2023-03-12T04:46:41.530Z,14.68
2023-03-12T04:49:09.088Z,9.43
2023-03-12T04:51:35.883Z,15.25
2023-03-12T04:54:02.902Z,13.25
2023-03-12T04:56:29.673Z,14.00
2023-03-12T04:58:56.677Z,9.60
2023-03-12T05:01:41.641Z,15.75
2023-03-12T05:04:08.484Z,9.77
2023-03-12T05:06:35.574Z,12.77
2023-03-12T05:09:02.462Z,12.23
2023-03-12T05:11:29.397Z,14.73
2023-03-12T05:13:56.206Z,12.25
2023-03-12T05:16:23.047Z,13.80
2023-03-12T05:18:49.929Z,14.23
2023-03-12T05:21:20.349Z,12.05
2023-03-12T05:23:47.706Z,13.73
2023-03-12T05:26:20.600Z,11.27
2023-03-12T05:28:47.822Z,10.60
2023-03-12T05:31:15.877Z,13.93
2023-03-12T05:33:43.190Z,11.50
2023-03-12T05:36:11.033Z,12.13
2023-03-12T05:38:38.456Z,13.80
2023-03-12T05:41:05.701Z,13.25
2023-03-12T05:43:33.153Z,11.63
2023-03-12T05:46:02.407Z,13.38
2023-03-12T05:48:29.894Z,11.27
2023-03-12T05:50:57.375Z,8.95
2023-03-12T05:53:24.546Z,11.95
2023-03-12T05:55:51.483Z,15.55
2023-03-12T05:58:18.446Z,10.13
2023-03-12T06:00:45.696Z,12.80
2023-03-12T06:03:13.246Z,13.88
2023-03-12T06:05:40.255Z,13.93
2023-03-12T06:08:07.729Z,14.02
2023-03-12T06:10:34.814Z,8.25
2023-03-12T06:13:01.653Z,11.77
2023-03-12T06:15:28.395Z,21.63
2023-03-12T06:17:55.220Z,11.68
2023-03-12T06:20:22.754Z,12.05
2023-03-12T06:22:49.868Z,10.25
2023-03-12T06:25:16.773Z,12.07
2023-03-12T06:27:43.642Z,11.07
2023-03-12T06:30:10.991Z,11.15
2023-03-12T06:32:37.771Z,11.18
2023-03-12T06:35:05.954Z,7.80
2023-03-12T06:37:32.957Z,9.40
2023-03-12T06:39:59.969Z,11.38
2023-03-12T06:42:26.960Z,9.77
2023-03-12T06:44:54.047Z,16.00
2023-03-12T06:47:20.910Z,10.80
2023-03-12T06:49:47.713Z,11.10
2023-03-12T06:52:14.513Z,10.90
2023-03-12T06:54:41.527Z,12.15
2023-03-12T06:57:08.725Z,10.20
2023-03-12T06:59:39.259Z,8.55
2023-03-12T07:02:06.509Z,17.40
2023-03-12T07:04:33.329Z,6.68
2023-03-12T07:07:00.337Z,7.22
2023-03-12T07:09:27.359Z,9.18
2023-03-12T07:11:54.249Z,14.00
2023-03-12T07:14:21.431Z,9.20
2023-03-12T07:16:48.605Z,11.82
2023-03-12T07:19:15.724Z,17.33
2023-03-12T07:21:42.630Z,25.02
2023-03-12T07:24:09.972Z,18.02
2023-03-12T07:26:36.881Z,23.40
2023-03-12T07:29:05.209Z,21.42
2023-03-12T07:31:32.224Z,14.20
2023-03-12T07:33:59.227Z,21.88
2023-03-12T07:36:26.419Z,10.93
2023-03-12T07:38:53.308Z,17.38
2023-03-12T07:41:20.202Z,11.27
2023-03-12T07:43:47.457Z,8.63
2023-03-12T07:46:14.475Z,12.48
2023-03-12T07:48:44.133Z,10.48
2023-03-12T07:51:11.314Z,12.07
2023-03-12T07:53:38.151Z,8.27
2023-03-12T07:56:05.433Z,12.57
2023-03-12T07:58:32.859Z,9.70
2023-03-12T08:00:59.837Z,6.50
2023-03-12T08:03:26.822Z,7.00
2023-03-12T08:06:02.524Z,7.18
2023-03-12T08:08:31.100Z,10.52
2023-03-12T08:10:59.669Z,8.60
2023-03-12T08:13:26.552Z,8.25
2023-03-12T08:15:54.465Z,11.18
2023-03-12T08:18:22.152Z,8.32
2023-03-12T08:20:53.512Z,7.18
2023-03-12T08:23:22.102Z,16.55
2023-03-12T08:25:50.445Z,13.40
2023-03-12T08:28:27.491Z,8.10
2023-03-12T08:30:56.262Z,12.07
2023-03-12T08:33:23.290Z,10.30
2023-03-12T08:35:50.761Z,9.73
2023-03-12T08:38:18.057Z,11.25
2023-03-12T08:40:44.933Z,13.45
2023-03-12T08:43:11.937Z,14.90
2023-03-12T08:45:38.975Z,9.82
2023-03-12T08:48:06.732Z,5.03
2023-03-12T08:50:33.850Z,9.07
2023-03-12T08:53:00.805Z,7.97
2023-03-12T08:55:30.791Z,11.48
2023-03-12T08:57:57.730Z,7.15
2023-03-12T09:00:25.231Z,9.27
2023-03-12T09:03:16.341Z,8.30
2023-03-12T09:05:50.366Z,9.77
2023-03-12T09:08:51.554Z,7.60
2023-03-12T09:11:29.079Z,9.85
2023-03-12T09:14:26.586Z,6.95
2023-03-12T09:16:43.246Z,7.00
2023-03-12T09:19:10.815Z,9.30
2023-03-12T09:21:38.041Z,10.05
2023-03-12T09:24:05.589Z,8.65
2023-03-12T09:26:43.867Z,8.52
2023-03-12T09:29:29.418Z,9.02
2023-03-12T09:32:30.704Z,8.43
2023-03-12T09:38:04.167Z,13.10
2023-03-12T09:40:37.316Z,6.97
2023-03-12T09:43:25.535Z,6.15
2023-03-12T09:45:53.812Z,11.27
2023-03-12T09:48:36.855Z,11.15
2023-03-12T09:51:20.835Z,10.65
2023-03-12T09:53:59.212Z,7.82
2023-03-12T09:56:27.490Z,6.47
2023-03-12T09:58:59.462Z,7.18
2023-03-12T10:01:37.970Z,8.82
2023-03-12T10:04:23.408Z,11.77
2023-03-12T10:06:53.089Z,7.57
2023-03-12T10:09:43.674Z,9.60
2023-03-12T10:12:49.138Z,7.15
2023-03-12T10:15:45.606Z,9.15
2023-03-12T10:18:32.357Z,9.40
2023-03-12T10:21:20.315Z,10.77
2023-03-12T10:24:06.560Z,8.05
2023-03-12T10:26:42.835Z,6.03
2023-03-12T10:29:39.642Z,10.48
2023-03-12T10:32:12.675Z,7.63
2023-03-12T10:35:03.076Z,6.95
2023-03-12T10:37:40.048Z,8.52
2023-03-12T10:40:08.963Z,12.63
2023-03-12T10:49:32.983Z,8.35
2023-03-12T10:52:05.806Z,13.52
2023-03-12T10:57:42.642Z,10.02
2023-03-12T11:00:48.075Z,11.32
2023-03-12T11:03:57.548Z,8.68
2023-03-12T11:10:14.375Z,12.85
2023-03-12T11:12:56.970Z,12.68
2023-03-12T11:15:32.022Z,12.65
2023-03-12T11:18:21.491Z,9.45
2023-03-12T11:20:52.849Z,12.68
2023-03-12T11:23:29.325Z,20.15
2023-03-12T11:26:03.442Z,13.85
2023-03-12T11:28:42.114Z,12.37
2023-03-12T11:31:23.425Z,12.43
2023-03-12T11:33:58.382Z,15.02
2023-03-12T11:39:41.492Z,11.65
2023-03-12T11:42:27.805Z,12.57
2023-03-12T11:45:06.390Z,16.60
2023-03-12T11:47:55.471Z,13.85
2023-03-12T11:50:49.952Z,13.35
2023-03-12T11:53:29.319Z,12.98
2023-03-12T11:56:23.326Z,15.45
2023-03-12T11:59:14.976Z,14.25
2023-03-12T12:02:05.940Z,17.35
2023-03-12T12:05:16.513Z,16.75
2023-03-12T12:07:59.062Z,20.67
2023-03-12T12:10:53.526Z,20.95
2023-03-12T12:13:51.552Z,21.85
2023-03-12T12:16:46.281Z,20.92
2023-03-12T12:19:26.500Z,18.08
2023-03-12T12:22:21.927Z,17.95
2023-03-12T12:25:18.194Z,14.38
2023-03-12T12:28:09.223Z,15.15
2023-03-12T12:31:13.965Z,13.32
2023-03-12T12:34:04.543Z,14.10
2023-03-12T12:36:35.387Z,15.70
2023-03-12T12:39:16.325Z,15.02
2023-03-12T12:41:51.974Z,15.07
2023-03-12T12:44:26.041Z,14.85
2023-03-12T12:46:59.201Z,15.15
2023-03-12T12:49:50.988Z,13.63
2023-03-12T12:52:22.546Z,13.15
2023-03-12T12:54:58.625Z,13.27
2023-03-12T12:57:34.874Z,16.17
2023-03-12T13:00:30.241Z,21.02
2023-03-12T13:02:58.289Z,19.00
2023-03-12T13:05:45.567Z,13.45
2023-03-12T13:08:32.430Z,12.88
2023-03-12T13:11:17.150Z,16.10
2023-03-12T13:13:51.423Z,15.18
2023-03-12T13:16:30.999Z,17.10
2023-03-12T13:19:17.039Z,15.50
2023-03-12T13:22:35.450Z,15.43
2023-03-12T13:25:14.701Z,16.13
2023-03-12T13:27:44.847Z,13.45
2023-03-12T13:30:41.958Z,13.80
2023-03-12T13:33:16.175Z,13.07
2023-03-12T13:36:02.382Z,12.02
2023-03-12T13:38:40.189Z,16.30
2023-03-12T13:41:08.707Z,18.75
2023-03-12T13:43:39.224Z,14.88
2023-03-12T13:46:21.064Z,15.88
2023-03-12T13:48:49.722Z,16.15
2023-03-12T13:51:25.397Z,18.05
2023-03-12T13:54:01.617Z,17.70
2023-03-12T13:56:31.660Z,17.20
2023-03-12T13:59:14.009Z,16.80
2023-03-12T14:01:46.052Z,19.23
2023-03-12T14:04:20.912Z,19.20
2023-03-12T14:07:17.694Z,17.33
2023-03-12T14:10:02.192Z,19.38
2023-03-12T14:12:53.562Z,16.80
2023-03-12T14:15:54.461Z,20.42
2023-03-12T14:18:26.675Z,16.92
2023-03-12T14:21:00.530Z,16.75
2023-03-12T14:23:40.598Z,18.10
2023-03-12T14:26:16.696Z,16.75
2023-03-12T14:29:01.185Z,18.67
2023-03-12T14:31:30.314Z,14.07
2023-03-12T14:34:16.385Z,17.55
2023-03-12T14:36:47.436Z,18.17
2023-03-12T14:39:39.773Z,16.65
2023-03-12T14:42:09.355Z,22.20
2023-03-12T14:44:39.947Z,18.50
2023-03-12T14:47:18.015Z,19.55
2023-03-12T14:49:47.298Z,22.45
2023-03-12T14:52:26.069Z,24.58
2023-03-12T14:54:58.767Z,28.38
2023-03-12T14:57:26.750Z,31.10
2023-03-12T14:59:59.809Z,32.33
2023-03-12T15:02:29.038Z,34.00
2023-03-12T15:05:00.526Z,35.17
2023-03-12T15:07:39.922Z,35.22
2023-03-12T15:10:17.317Z,36.88
2023-03-12T15:12:46.868Z,37.85
2023-03-12T15:15:42.900Z,41.42
2023-03-12T15:18:31.056Z,38.78
2023-03-12T15:21:01.717Z,44.60
2023-03-12T15:23:36.723Z,42.85
2023-03-12T15:26:11.916Z,43.13
2023-03-12T15:28:40.417Z,43.17
2023-03-12T15:31:12.080Z,48.05
2023-03-12T15:33:40.792Z,50.22
2023-03-12T15:36:18.462Z,48.25
2023-03-12T15:39:10.489Z,47.08
2023-03-12T15:41:49.565Z,47.42
2023-03-12T15:44:23.297Z,55.03
2023-03-12T15:46:57.222Z,49.67
2023-03-12T15:49:29.997Z,51.97
2023-03-12T15:52:03.450Z,51.20
2023-03-12T15:54:35.445Z,51.47
2023-03-12T15:57:20.188Z,47.63
2023-03-12T16:00:14.811Z,43.75
2023-03-12T16:02:52.799Z,41.75
2023-03-12T16:05:23.157Z,41.97
2023-03-12T16:07:50.372Z,42.38
2023-03-12T16:10:20.926Z,44.08
2023-03-12T16:12:50.497Z,44.55
2023-03-12T16:15:22.987Z,44.38
2023-03-12T16:17:50.839Z,44.00
2023-03-12T16:20:19.048Z,46.08
2023-03-12T16:22:46.332Z,49.25
2023-03-12T16:25:13.783Z,51.13
2023-03-12T16:28:00.804Z,51.90
2023-03-12T16:30:31.423Z,52.83
2023-03-12T16:33:00.564Z,54.70
2023-03-12T16:35:29.178Z,52.75
2023-03-12T16:37:56.891Z,53.38
2023-03-12T16:40:33.217Z,52.67
2023-03-12T16:43:04.016Z,48.65
2023-03-12T16:45:34.113Z,54.42
2023-03-12T16:48:04.343Z,52.00
2023-03-12T16:50:31.903Z,57.65
2023-03-12T16:52:59.784Z,61.95
2023-03-12T16:55:30.453Z,67.50
2023-03-12T16:58:02.670Z,63.35
2023-03-12T17:00:33.189Z,61.28
2023-03-12T17:03:01.016Z,52.45
2023-03-12T17:05:30.194Z,55.50
2023-03-12T17:07:59.253Z,60.00
2023-03-12T17:10:27.016Z,58.65
2023-03-12T17:12:55.729Z,55.53
2023-03-12T17:15:26.594Z,62.08
2023-03-12T17:17:55.923Z,62.15
2023-03-12T17:20:25.757Z,60.10
2023-03-12T17:22:53.690Z,61.35
2023-03-12T17:25:28.558Z,59.58
2023-03-12T17:27:57.543Z,62.03
2023-03-12T17:30:25.861Z,55.65
2023-03-12T17:32:54.713Z,57.97
2023-03-12T17:35:22.504Z,50.53
2023-03-12T17:37:51.225Z,48.20
2023-03-12T17:40:19.088Z,57.95
2023-03-12T17:42:46.573Z,48.53
2023-03-12T17:45:14.721Z,46.03
2023-03-12T17:47:43.037Z,53.63
2023-03-12T17:50:12.135Z,45.03
2023-03-12T17:52:39.616Z,39.78
2023-03-12T17:55:11.643Z,43.83
2023-03-12T17:57:39.437Z,41.08
2023-03-12T18:00:13.184Z,42.55
2023-03-12T18:02:41.798Z,43.65
2023-03-12T18:05:11.016Z,48.22
2023-03-12T18:07:40.303Z,45.25
2023-03-12T18:10:11.319Z,40.00
2023-03-12T18:12:40.793Z,42.15
2023-03-12T18:15:11.379Z,36.83
2023-03-12T18:17:39.445Z,42.67
2023-03-12T18:20:10.107Z,41.10
2023-03-12T18:22:39.712Z,46.28
2023-03-12T18:25:08.037Z,35.00
2023-03-12T18:27:35.216Z,39.33
2023-03-12T18:30:02.583Z,43.83
2023-03-12T18:32:30.198Z,38.85
2023-03-12T18:34:57.846Z,44.08
2023-03-12T18:37:25.814Z,38.38
2023-03-12T18:39:53.032Z,47.90
2023-03-12T18:42:20.614Z,45.20
2023-03-12T18:44:47.847Z,41.30
2023-03-12T18:47:14.905Z,52.05
2023-03-12T18:49:42.390Z,40.33
2023-03-12T18:52:10.134Z,45.00
2023-03-12T18:54:38.660Z,36.92
2023-03-12T18:57:08.053Z,39.95
2023-03-12T18:59:36.179Z,47.42
2023-03-12T19:02:05.419Z,38.00
2023-03-12T19:04:33.218Z,45.90
2023-03-12T19:07:01.147Z,44.42
2023-03-12T19:09:28.703Z,33.38
2023-03-12T19:11:56.301Z,43.47
2023-03-12T19:14:23.806Z,45.28
2023-03-12T19:16:51.806Z,48.63
2023-03-12T19:19:20.604Z,40.10
2023-03-12T19:21:48.842Z,42.03
2023-03-12T19:24:16.868Z,40.70
2023-03-12T19:26:44.737Z,41.33
2023-03-12T19:29:12.336Z,56.65
2023-03-12T19:31:44.659Z,50.83
2023-03-12T19:34:12.397Z,47.80
2023-03-12T19:36:39.951Z,49.70
2023-03-12T19:39:15.208Z,44.67
2023-03-12T19:41:48.228Z,40.03
2023-03-12T19:44:16.090Z,41.00
2023-03-12T19:46:43.606Z,44.00
2023-03-12T19:49:11.199Z,49.10
2023-03-12T19:51:40.621Z,38.85
2023-03-12T19:54:08.456Z,43.38
2023-03-12T19:56:36.089Z,41.50
2023-03-12T19:59:04.286Z,37.63
2023-03-12T20:01:31.699Z,41.35
2023-03-12T20:03:59.301Z,52.42
2023-03-12T20:06:26.812Z,49.03
2023-03-12T20:08:54.270Z,38.22
2023-03-12T20:11:21.867Z,42.70
2023-03-12T20:13:49.164Z,41.55
2023-03-12T20:16:17.256Z,38.72
2023-03-12T20:18:44.833Z,44.60
2023-03-12T20:21:11.998Z,41.00
2023-03-12T20:23:39.545Z,49.95
2023-03-12T20:26:07.020Z,45.85
2023-03-12T20:28:34.450Z,42.58
2023-03-12T20:31:10.066Z,42.20
2023-03-12T20:33:37.767Z,47.42
2023-03-12T20:36:15.502Z,45.97
2023-03-12T20:38:43.392Z,48.75
2023-03-12T20:41:15.987Z,40.08
2023-03-12T20:43:44.656Z,48.10
2023-03-12T20:46:13.176Z,55.33
2023-03-12T20:48:40.421Z,54.38
2023-03-12T20:51:07.751Z,46.25
2023-03-12T20:53:35.130Z,50.28
2023-03-12T20:56:04.321Z,48.55
2023-03-12T20:58:32.832Z,51.00
2023-03-12T21:01:05.214Z,44.40
2023-03-12T21:03:33.791Z,42.00
2023-03-12T21:06:03.033Z,45.17
2023-03-12T21:08:30.775Z,48.58
2023-03-12T21:10:58.307Z,48.03
2023-03-12T21:13:26.919Z,48.60
2023-03-12T21:15:54.269Z,42.78
2023-03-12T21:18:22.493Z,49.40
2023-03-12T21:20:50.488Z,36.17
2023-03-12T21:23:18.527Z,51.83
2023-03-12T21:25:46.332Z,35.85
2023-03-12T21:28:13.906Z,45.40
2023-03-12T21:30:41.577Z,45.13
2023-03-12T21:33:09.009Z,50.40
2023-03-12T21:35:36.337Z,38.42
2023-03-12T21:38:04.034Z,38.97
2023-03-12T21:40:31.335Z,48.15
2023-03-12T21:42:59.110Z,42.22
2023-03-12T21:45:26.569Z,39.33
2023-03-12T21:47:54.478Z,44.60
2023-03-12T21:50:22.243Z,39.58
2023-03-12T21:52:50.040Z,33.28
2023-03-12T21:55:18.702Z,40.13
2023-03-12T21:57:46.326Z,35.70
2023-03-12T22:00:14.472Z,39.65
2023-03-12T22:02:42.727Z,36.08
2023-03-12T22:05:11.080Z,37.13
2023-03-12T22:07:39.369Z,38.72
2023-03-12T22:10:08.164Z,41.60
2023-03-12T22:12:35.262Z,40.45
2023-03-12T22:15:03.002Z,38.35
2023-03-12T22:17:30.153Z,39.42
2023-03-12T22:19:57.389Z,31.42
2023-03-12T22:22:24.589Z,36.47
2023-03-12T22:24:52.404Z,40.80
2023-03-12T22:27:19.733Z,39.85
2023-03-12T22:29:47.434Z,34.88
2023-03-12T22:32:14.989Z,37.83
2023-03-12T22:34:42.487Z,33.00
2023-03-12T22:37:09.574Z,39.53
2023-03-12T22:39:39.449Z,42.75
2023-03-12T22:42:07.018Z,34.55
2023-03-12T22:44:34.273Z,36.40
2023-03-12T22:47:01.698Z,38.05
2023-03-12T22:49:29.083Z,35.45
2023-03-12T22:51:56.421Z,35.67
2023-03-12T22:54:23.817Z,32.55
2023-03-12T22:56:50.930Z,34.78
2023-03-12T22:59:18.216Z,37.58
2023-03-12T23:01:45.536Z,40.55
2023-03-12T23:04:13.133Z,27.25
2023-03-12T23:06:40.614Z,33.85
2023-03-12T23:09:08.111Z,47.30
2023-03-12T23:11:36.128Z,35.67
2023-03-12T23:14:05.929Z,45.47
2023-03-12T23:16:33.299Z,46.13
2023-03-12T23:19:00.715Z,36.65
2023-03-12T23:21:27.916Z,41.58
2023-03-12T23:23:55.531Z,35.53
2023-03-12T23:26:28.315Z,35.55
2023-03-12T23:28:57.581Z,36.30
2023-03-12T23:31:28.811Z,39.47
2023-03-12T23:33:57.008Z,36.70
2023-03-12T23:36:25.483Z,36.33
2023-03-12T23:38:53.600Z,42.97
2023-03-12T23:41:23.683Z,33.28
2023-03-12T23:43:52.260Z,42.08
2023-03-12T23:46:20.168Z,31.75
2023-03-12T23:48:48.630Z,37.00
2023-03-12T23:51:22.260Z,34.50
2023-03-12T23:53:51.857Z,43.25
2023-03-12T23:56:21.550Z,39.78
2023-03-12T23:58:53.625Z,39.13
